createdAt,value
2023-01-02T00:02:00.571Z,98897.41
2023-01-02T00:04:45.890Z,99033.72
2023-01-02T00:07:31.689Z,99035.38
2023-01-02T00:10:17.260Z,99084.78
2023-01-02T00:13:02.869Z,99050.28
2023-01-02T00:15:48.850Z,98903.78
2023-01-02T00:18:34.310Z,99037.00
2023-01-02T00:21:19.689Z,98863.78
2023-01-02T00:24:05.433Z,98902.63
2023-01-02T00:26:50.616Z,99102.53
2023-01-02T00:29:36.136Z,99040.53
2023-01-02T00:32:21.691Z,99092.31
2023-01-02T00:35:07.496Z,98938.09
2023-01-02T00:37:53.649Z,98994.88
2023-01-02T00:40:39.416Z,99082.59
2023-01-02T00:43:25.212Z,99089.81
2023-01-02T00:46:12.163Z,99027.19
2023-01-02T00:48:58.010Z,98930.56
2023-01-02T00:51:43.625Z,99089.81
2023-01-02T00:54:29.005Z,99064.59
2023-01-02T00:57:14.535Z,99094.72
2023-01-02T01:00:00.129Z,99024.78
2023-01-02T01:02:45.573Z,99020.88
2023-01-02T01:05:31.401Z,98904.84
2023-01-02T01:08:16.841Z,99076.97
2023-01-02T01:11:11.022Z,98940.47
2023-01-02T01:13:56.305Z,99090.59
2023-01-02T01:16:42.481Z,99033.25
2023-01-02T01:19:34.908Z,99061.19
2023-01-02T01:22:20.393Z,99055.34
2023-01-02T01:25:06.272Z,99069.66
2023-01-02T01:27:54.901Z,98953.44
2023-01-02T01:30:40.240Z,99079.88
2023-01-02T01:33:25.654Z,98891.78
2023-01-02T01:36:17.075Z,99075.19
2023-01-02T01:39:02.739Z,98980.63
2023-01-02T01:41:48.260Z,99060.75
2023-01-02T01:44:44.148Z,99046.78
2023-01-02T01:47:35.761Z,99069.88
2023-01-02T01:50:35.587Z,99014.84
2023-01-02T01:53:22.710Z,98858.00
2023-01-02T01:56:10.726Z,98855.91
2023-01-02T01:58:56.214Z,99030.97
2023-01-02T02:01:43.832Z,99004.16
2023-01-02T02:04:31.913Z,99056.53
2023-01-02T02:07:17.514Z,99031.44
2023-01-02T02:10:08.212Z,98851.34
2023-01-02T02:12:53.831Z,98916.91
2023-01-02T02:15:57.978Z,99026.97
2023-01-02T02:19:02.118Z,99037.88
2023-01-02T02:22:19.128Z,98994.44
2023-01-02T02:25:26.104Z,99036.59
2023-01-02T02:28:20.877Z,99027.28
2023-01-02T02:31:06.333Z,99031.94
2023-01-02T02:34:10.597Z,99031.50
2023-01-02T02:37:14.914Z,98833.13
2023-01-02T02:40:04.229Z,99033.00
2023-01-02T02:42:59.012Z,99019.88
2023-01-02T02:46:12.336Z,99018.69
2023-01-02T02:49:10.853Z,98981.28
2023-01-02T02:52:03.328Z,99025.53
2023-01-02T02:55:01.236Z,99029.88
2023-01-02T02:57:47.627Z,98849.97
2023-01-02T03:00:33.035Z,99051.47
2023-01-02T03:03:21.059Z,98989.16
2023-01-02T03:06:19.981Z,98989.97
2023-01-02T03:09:24.049Z,99029.47
2023-01-02T03:12:26.629Z,98999.47
2023-01-02T03:15:40.107Z,99010.41
2023-01-02T03:18:32.113Z,98831.06
2023-01-02T03:21:31.035Z,98974.16
2023-01-02T03:24:20.091Z,98829.47
2023-01-02T03:27:12.778Z,99021.19
2023-01-02T03:30:21.300Z,99016.97
2023-01-02T03:33:12.804Z,99031.97
2023-01-02T03:36:08.645Z,98974.66
2023-01-02T03:39:07.044Z,99008.22
2023-01-02T03:42:07.904Z,99015.47
2023-01-02T03:45:03.953Z,98848.78
2023-01-02T03:48:08.713Z,99042.72
2023-01-02T03:50:57.907Z,99074.56
2023-01-02T03:53:44.059Z,99039.41
2023-01-02T03:56:46.619Z,98964.84
2023-01-02T03:59:55.322Z,99049.22
2023-01-02T04:03:07.656Z,99049.41
2023-01-02T04:06:09.459Z,99072.31
2023-01-02T04:09:16.774Z,99047.81
2023-01-02T04:12:07.616Z,99069.06
2023-01-02T04:14:59.751Z,98996.94
2023-01-02T04:17:49.711Z,98880.00
2023-01-02T04:20:40.780Z,99077.66
2023-01-02T04:23:35.478Z,99055.50
2023-01-02T04:26:26.776Z,99050.25
2023-01-02T04:29:12.105Z,99026.25
2023-01-02T04:32:23.004Z,99057.00
2023-01-02T04:35:13.823Z,98889.50
2023-01-02T04:38:07.880Z,98928.47
2023-01-02T04:40:53.449Z,98860.72
2023-01-02T04:43:38.873Z,99010.09
2023-01-02T04:46:25.793Z,98991.59
2023-01-02T04:49:11.230Z,99000.06
2023-01-02T04:51:56.451Z,98869.75
2023-01-02T04:54:41.888Z,99017.38
2023-01-02T04:57:27.317Z,99029.78
2023-01-02T05:00:12.980Z,98963.91
2023-01-02T05:02:58.700Z,98911.97
2023-01-02T05:05:43.939Z,98898.06
2023-01-02T05:08:29.839Z,99008.59
2023-01-02T05:11:19.636Z,99069.78
2023-01-02T05:14:07.551Z,99074.09
2023-01-02T05:16:53.233Z,99024.09
2023-01-02T05:19:39.157Z,99070.22
2023-01-02T05:22:45.706Z,99067.53
2023-01-02T05:25:33.586Z,98969.59
2023-01-02T05:28:19.137Z,99101.56
2023-01-02T05:31:04.855Z,98937.88
2023-01-02T05:33:55.144Z,99080.72
2023-01-02T05:36:40.888Z,99085.53
2023-01-02T05:39:26.836Z,99087.84
2023-01-02T05:42:12.444Z,99090.03
2023-01-02T05:44:57.971Z,98918.00
2023-01-02T05:47:43.209Z,98956.56
2023-01-02T05:50:28.543Z,99053.94
2023-01-02T05:53:14.083Z,99075.63
2023-01-02T05:56:08.358Z,99029.94
2023-01-02T05:58:54.099Z,99015.13
2023-01-02T06:01:39.863Z,99046.16
2023-01-02T06:04:25.686Z,99061.06
2023-01-02T06:07:11.063Z,98897.38
2023-01-02T06:09:56.493Z,99050.81
2023-01-02T06:12:41.777Z,98934.41
2023-01-02T06:15:27.322Z,98868.53
2023-01-02T06:18:12.920Z,99057.84
2023-01-02T06:20:59.777Z,99034.50
2023-01-02T06:23:45.699Z,99064.19
2023-01-02T06:26:35.195Z,98964.03
2023-01-02T06:29:21.055Z,98857.38
2023-01-02T06:32:06.501Z,99058.41
2023-01-02T06:34:51.890Z,99073.13
2023-01-02T06:37:43.278Z,99075.34
2023-01-02T06:40:28.949Z,98917.72
2023-01-02T06:43:14.379Z,99069.88
2023-01-02T06:46:01.673Z,98931.56
2023-01-02T06:48:47.813Z,98877.56
2023-01-02T06:51:33.314Z,99072.81
2023-01-02T06:54:18.735Z,99037.16
2023-01-02T06:57:04.358Z,99023.63
2023-01-02T06:59:50.137Z,99081.97
2023-01-02T07:02:36.790Z,99070.94
2023-01-02T07:05:24.890Z,99079.81
2023-01-02T07:08:12.147Z,99073.03
2023-01-02T07:11:08.407Z,99020.41
2023-01-02T07:13:54.973Z,98842.03
2023-01-02T07:16:40.511Z,98894.31
2023-01-02T07:19:26.000Z,98870.69
2023-01-02T07:22:11.274Z,99085.03
2023-01-02T07:24:56.761Z,99060.41
2023-01-02T07:27:42.174Z,99081.34
2023-01-02T07:30:27.617Z,99044.66
2023-01-02T07:33:13.087Z,98947.78
2023-01-02T07:36:11.158Z,99059.38
2023-01-02T07:38:57.564Z,99070.22
2023-01-02T07:41:43.771Z,99104.00
2023-01-02T07:44:33.912Z,99009.38
2023-01-02T07:47:19.617Z,99060.16
2023-01-02T07:50:05.639Z,99070.66
2023-01-02T07:52:51.276Z,98919.16
2023-01-02T07:55:36.764Z,99045.22
2023-01-02T07:58:22.478Z,99064.16
2023-01-02T08:01:10.933Z,98920.38
2023-01-02T08:03:56.670Z,99091.16
2023-01-02T08:06:42.389Z,99107.81
2023-01-02T08:09:27.800Z,99112.28
2023-01-02T08:12:13.223Z,99105.31
2023-01-02T08:14:58.639Z,98909.25
2023-01-02T08:17:44.174Z,99089.81
2023-01-02T08:20:29.532Z,98955.25
2023-01-02T08:23:14.825Z,99113.94
2023-01-02T08:26:02.369Z,99065.59
2023-01-02T08:28:47.679Z,99064.59
2023-01-02T08:31:33.131Z,99082.47
2023-01-02T08:34:18.610Z,99081.91
2023-01-02T08:37:04.300Z,98929.66
2023-01-02T08:39:49.649Z,99041.53
2023-01-02T08:42:34.899Z,99045.50
2023-01-02T08:45:20.156Z,99047.59
2023-01-02T08:48:20.294Z,99099.91
2023-01-02T08:51:13.023Z,99089.78
2023-01-02T08:53:59.150Z,99000.97
2023-01-02T08:56:44.423Z,98938.59
2023-01-02T08:59:29.877Z,99092.22
2023-01-02T09:02:16.085Z,99080.38
2023-01-02T09:05:02.151Z,98978.38
2023-01-02T09:07:47.594Z,98952.75
2023-01-02T09:10:33.170Z,98967.50
2023-01-02T09:13:18.496Z,99108.63
2023-01-02T09:16:04.172Z,99046.13
2023-01-02T09:18:50.932Z,98950.94
2023-01-02T09:21:36.511Z,99092.94
2023-01-02T09:24:22.403Z,99065.88
2023-01-02T09:27:08.395Z,99072.66
2023-01-02T09:29:53.948Z,98906.94
2023-01-02T09:32:39.385Z,99039.59
2023-01-02T09:35:25.653Z,99066.44
2023-01-02T09:38:11.066Z,99025.38
2023-01-02T09:40:59.091Z,99065.31
2023-01-02T09:43:49.724Z,99074.91
2023-01-02T09:47:00.359Z,99065.53
2023-01-02T09:49:52.960Z,99081.63
2023-01-02T09:52:51.520Z,99050.59
2023-01-02T09:55:50.067Z,99019.53
2023-01-02T09:59:17.537Z,99035.31
2023-01-02T10:02:06.261Z,99063.56
2023-01-02T10:05:24.199Z,98990.44
2023-01-02T10:08:36.400Z,99024.41
2023-01-02T10:11:24.854Z,99017.97
2023-01-02T10:14:38.697Z,98755.78
2023-01-02T10:17:28.437Z,98842.03
2023-01-02T10:20:15.686Z,99023.75
2023-01-02T10:23:14.842Z,98982.34
2023-01-02T10:26:13.905Z,99019.66
2023-01-02T10:29:16.301Z,98950.94
2023-01-02T10:32:07.715Z,98991.97
2023-01-02T10:35:00.060Z,99008.91
2023-01-02T10:37:45.525Z,98947.97
2023-01-02T10:40:33.325Z,98826.19
2023-01-02T10:43:19.705Z,98962.72
2023-01-02T10:46:05.418Z,98956.78
2023-01-02T10:48:52.461Z,98954.56
2023-01-02T10:51:48.254Z,98937.94
2023-01-02T10:55:00.030Z,98836.81
2023-01-02T10:57:51.523Z,98972.81
2023-01-02T11:00:37.313Z,98946.97
2023-01-02T11:03:25.657Z,98972.34
2023-01-02T11:06:35.134Z,98969.69
2023-01-02T11:09:26.565Z,98980.00
2023-01-02T11:12:14.486Z,98976.97
2023-01-02T11:15:13.858Z,98951.72
2023-01-02T11:18:02.869Z,98886.38
2023-01-02T11:20:54.224Z,98916.56
2023-01-02T11:23:43.644Z,98858.22
2023-01-02T11:26:30.711Z,98764.25
2023-01-02T11:29:26.340Z,98922.03
2023-01-02T11:32:23.085Z,98846.94
2023-01-02T11:35:32.234Z,98928.94
2023-01-02T11:38:30.054Z,98767.16
2023-01-02T11:41:54.963Z,98915.34
2023-01-02T11:45:08.445Z,98826.41
2023-01-02T11:48:00.524Z,98879.50
2023-01-02T11:50:45.951Z,98863.41
2023-01-02T11:53:40.644Z,98896.84
2023-01-02T11:56:36.421Z,98922.16
2023-01-02T11:59:31.226Z,98895.19
2023-01-02T12:02:26.956Z,98900.56
2023-01-02T12:05:22.646Z,98907.91
2023-01-02T12:08:42.120Z,98895.66
2023-01-02T12:11:37.977Z,98908.97
2023-01-02T12:14:35.414Z,98867.88
2023-01-02T12:17:33.289Z,98856.25
2023-01-02T12:20:25.164Z,98910.03
2023-01-02T12:23:13.540Z,98905.91
2023-01-02T12:26:11.912Z,98883.34
2023-01-02T12:29:06.209Z,98939.31
2023-01-02T12:32:08.186Z,98858.66
2023-01-02T12:35:18.687Z,98882.50
2023-01-02T12:38:08.251Z,98888.91
2023-01-02T12:42:01.398Z,98885.47
2023-01-02T12:44:58.542Z,98870.22
2023-01-02T12:47:56.211Z,98895.44
2023-01-02T12:51:08.248Z,98874.50
2023-01-02T12:54:18.759Z,98839.81
2023-01-02T12:57:06.263Z,98872.78
2023-01-02T13:00:28.336Z,98876.44
2023-01-02T13:03:35.905Z,98872.34
2023-01-02T13:06:43.515Z,98834.09
2023-01-02T13:09:43.575Z,98861.03
2023-01-02T13:12:32.259Z,98840.72
2023-01-02T13:15:36.241Z,98878.66
2023-01-02T13:18:27.648Z,98856.06
2023-01-02T13:22:04.186Z,98859.72
2023-01-02T13:24:51.853Z,98869.41
2023-01-02T13:27:37.547Z,98827.31
2023-01-02T13:30:32.049Z,98878.75
2023-01-02T13:33:24.041Z,98869.91
2023-01-02T13:36:36.090Z,98849.44
2023-01-02T13:39:37.936Z,98818.88
2023-01-02T13:42:52.948Z,98698.84
2023-01-02T13:45:50.753Z,98680.00
2023-01-02T13:49:01.744Z,98842.06
2023-01-02T13:51:47.732Z,98852.88
2023-01-02T13:54:37.530Z,98748.38
2023-01-02T13:57:29.117Z,98862.66
2023-01-02T14:00:14.781Z,98856.03
2023-01-02T14:03:23.198Z,98839.03
2023-01-02T14:06:27.987Z,98837.09
2023-01-02T14:09:15.254Z,98760.16
2023-01-02T14:12:03.724Z,98830.13
2023-01-02T14:14:52.738Z,98824.72
2023-01-02T14:17:47.505Z,98685.34
2023-01-02T14:20:36.979Z,98787.88
2023-01-02T14:23:29.743Z,98765.75
2023-01-02T14:26:29.200Z,98651.53
2023-01-02T14:29:19.424Z,98771.44
2023-01-02T14:32:39.208Z,98815.28
2023-01-02T14:35:37.806Z,98661.59
2023-01-02T14:38:26.446Z,98787.44
2023-01-02T14:42:08.806Z,98818.06
2023-01-02T14:45:03.017Z,98824.91
2023-01-02T14:47:59.625Z,98818.06
2023-01-02T14:50:48.831Z,98819.50
2023-01-02T14:53:49.439Z,98817.31
2023-01-02T14:56:38.469Z,98796.75
2023-01-02T14:59:26.247Z,98659.41
2023-01-02T15:02:19.398Z,98788.63
2023-01-02T15:05:11.792Z,98794.84
2023-01-02T15:07:59.013Z,98814.53
2023-01-02T15:11:32.944Z,98820.34
2023-01-02T15:14:23.851Z,98820.91
2023-01-02T15:17:22.042Z,98646.50
2023-01-02T15:20:09.431Z,98812.53
2023-01-02T15:22:56.126Z,98818.41
2023-01-02T15:25:42.760Z,98811.78
2023-01-02T15:28:33.096Z,98719.44
2023-01-02T15:31:18.687Z,98741.16
2023-01-02T15:34:03.975Z,98765.72
2023-01-02T15:36:49.595Z,98772.53
2023-01-02T15:39:40.132Z,98825.69
2023-01-02T15:42:46.321Z,98810.22
2023-01-02T15:45:33.181Z,98699.44
2023-01-02T15:48:22.065Z,98795.03
2023-01-02T15:51:16.232Z,98802.44
2023-01-02T15:54:03.528Z,98786.41
2023-01-02T15:56:49.487Z,98731.72
2023-01-02T15:59:38.963Z,98786.63
2023-01-02T16:02:42.925Z,98779.81
2023-01-02T16:05:29.458Z,98728.09
2023-01-02T16:08:21.475Z,98752.94
2023-01-02T16:11:12.961Z,98786.31
2023-01-02T16:14:19.529Z,98779.13
2023-01-02T16:17:14.449Z,98748.25
2023-01-02T16:20:12.169Z,98778.06
2023-01-02T16:23:05.832Z,98731.28
2023-01-02T16:25:53.750Z,98736.81
2023-01-02T16:28:43.837Z,98609.00
2023-01-02T16:31:29.753Z,98768.69
2023-01-02T16:34:27.233Z,98778.28
2023-01-02T16:37:15.573Z,98783.06
2023-01-02T16:40:58.949Z,98776.59
2023-01-02T16:43:46.132Z,98743.03
2023-01-02T16:46:32.183Z,98789.16
2023-01-02T16:49:22.891Z,98738.59
2023-01-02T16:52:09.953Z,98729.00
2023-01-02T16:54:55.460Z,98727.16
2023-01-02T16:57:41.015Z,98767.53
2023-01-02T17:00:26.573Z,98744.84
2023-01-02T17:03:25.242Z,98739.38
2023-01-02T17:06:14.754Z,98652.84
2023-01-02T17:09:00.545Z,98597.59
2023-01-02T17:12:00.438Z,98735.41
2023-01-02T17:14:46.321Z,98764.34
2023-01-02T17:17:31.839Z,98742.06
2023-01-02T17:20:17.333Z,98745.38
2023-01-02T17:23:05.620Z,98738.94
2023-01-02T17:25:51.431Z,98592.03
2023-01-02T17:28:37.501Z,98683.13
2023-01-02T17:31:26.067Z,98629.25
2023-01-02T17:34:11.774Z,98598.09
2023-01-02T17:36:58.138Z,98602.69
2023-01-02T17:39:46.686Z,98728.44
2023-01-02T17:42:32.743Z,98741.72
2023-01-02T17:45:18.303Z,98748.34
2023-01-02T17:48:10.975Z,98773.81
2023-01-02T17:50:59.665Z,98725.31
2023-01-02T17:53:48.801Z,98771.25
2023-01-02T17:56:36.307Z,98759.44
2023-01-02T17:59:24.588Z,98744.50
2023-01-02T18:02:18.471Z,98690.81
2023-01-02T18:05:06.394Z,98754.97
2023-01-02T18:07:53.367Z,98719.03
2023-01-02T18:10:40.652Z,98765.31
2023-01-02T18:13:29.262Z,98663.19
2023-01-02T18:16:21.610Z,98617.63
2023-01-02T18:19:13.765Z,98721.81
2023-01-02T18:21:59.251Z,98747.25
2023-01-02T18:24:47.575Z,98737.66
2023-01-02T18:27:34.887Z,98730.28
2023-01-02T18:30:23.462Z,98578.16
2023-01-02T18:33:17.869Z,98626.66
2023-01-02T18:36:18.705Z,98580.94
2023-01-02T18:39:16.613Z,98755.38
2023-01-02T18:42:14.592Z,98701.16
2023-01-02T18:45:01.042Z,98716.25
2023-01-02T18:47:56.397Z,98599.38
2023-01-02T18:50:44.661Z,98701.91
2023-01-02T18:53:35.885Z,98702.78
2023-01-02T18:56:31.219Z,98770.09
2023-01-02T18:59:29.097Z,98569.09
2023-01-02T19:02:57.934Z,98706.13
2023-01-02T19:05:45.654Z,98734.16
2023-01-02T19:08:37.267Z,98750.53
2023-01-02T19:11:51.498Z,98573.16
2023-01-02T19:14:40.468Z,98694.44
2023-01-02T19:17:33.234Z,98733.69
2023-01-02T19:20:26.579Z,98751.44
2023-01-02T19:23:26.828Z,98549.19
2023-01-02T19:26:38.427Z,98725.13
2023-01-02T19:29:32.842Z,98572.25
2023-01-02T19:32:26.912Z,98726.78
2023-01-02T19:35:25.343Z,98609.22
2023-01-02T19:38:26.830Z,98722.91
2023-01-02T19:41:16.652Z,98714.69
2023-01-02T19:44:02.746Z,98588.25
2023-01-02T19:46:48.419Z,98686.03
2023-01-02T19:49:34.599Z,98737.22
2023-01-02T19:52:22.139Z,98554.09
2023-01-02T19:55:09.552Z,98710.50
2023-01-02T19:57:55.316Z,98665.81
2023-01-02T20:00:40.703Z,98533.56
2023-01-02T20:03:26.440Z,98718.91
2023-01-02T20:06:12.461Z,98699.09
2023-01-02T20:08:58.732Z,98667.94
2023-01-02T20:12:07.831Z,98652.22
2023-01-02T20:14:53.750Z,98726.97
2023-01-02T20:17:39.700Z,98666.69
2023-01-02T20:20:26.530Z,98702.34
2023-01-02T20:23:12.271Z,98715.03
2023-01-02T20:25:59.117Z,98698.16
2023-01-02T20:28:46.815Z,98659.31
2023-01-02T20:31:32.413Z,98696.19
2023-01-02T20:34:18.771Z,98592.38
2023-01-02T20:37:05.758Z,98655.75
2023-01-02T20:39:52.541Z,98521.34
2023-01-02T20:42:38.195Z,98494.00
2023-01-02T20:45:24.067Z,98551.63
2023-01-02T20:48:12.236Z,98621.56
2023-01-02T20:50:59.234Z,98680.13
2023-01-02T20:53:47.768Z,98704.94
2023-01-02T20:56:34.710Z,98696.28
2023-01-02T20:59:21.777Z,98605.91
2023-01-02T21:02:07.744Z,98723.88
2023-01-02T21:04:55.469Z,98708.28
2023-01-02T21:07:40.719Z,98675.38
2023-01-02T21:10:27.344Z,98671.78
2023-01-02T21:13:16.776Z,98627.00
2023-01-02T21:16:03.342Z,98695.44
2023-01-02T21:18:51.220Z,98678.75
2023-01-02T21:21:37.365Z,98514.69
2023-01-02T21:24:22.684Z,98645.81
2023-01-02T21:27:12.994Z,98701.38
2023-01-02T21:29:59.686Z,98704.06
2023-01-02T21:32:47.894Z,98734.53
2023-01-02T21:35:34.641Z,98657.75
2023-01-02T21:38:22.100Z,98699.72
2023-01-02T21:41:26.972Z,98707.13
2023-01-02T21:44:12.467Z,98546.09
2023-01-02T21:46:58.192Z,98729.31
2023-01-02T21:49:44.499Z,98724.47
2023-01-02T21:52:30.176Z,98665.91
2023-01-02T21:55:17.558Z,98704.78
2023-01-02T21:58:18.670Z,98647.28
2023-01-02T22:01:05.781Z,98693.78
2023-01-02T22:03:51.066Z,98630.25
2023-01-02T22:06:38.766Z,98696.00
2023-01-02T22:09:31.310Z,98689.97
2023-01-02T22:12:17.818Z,98695.47
2023-01-02T22:15:09.169Z,98684.09
2023-01-02T22:17:54.819Z,98485.22
2023-01-02T22:20:40.433Z,98667.59
2023-01-02T22:23:25.924Z,98675.63
2023-01-02T22:26:11.299Z,98499.47
2023-01-02T22:28:57.581Z,98689.16
2023-01-02T22:31:43.468Z,98658.63
2023-01-02T22:34:33.278Z,98678.59
2023-01-02T22:37:22.721Z,98660.41
2023-01-02T22:40:10.087Z,98700.28
2023-01-02T22:43:00.964Z,98469.91
2023-01-02T22:45:52.677Z,98665.81
2023-01-02T22:48:40.220Z,98627.66
2023-01-02T22:51:57.677Z,98654.19
2023-01-02T22:54:31.985Z,98539.81
2023-01-02T22:57:18.237Z,98637.75
2023-01-02T23:00:04.139Z,98687.47
2023-01-02T23:02:50.571Z,98676.38
2023-01-02T23:05:35.856Z,98684.09
2023-01-02T23:08:21.451Z,98668.69
2023-01-02T23:11:09.853Z,98652.69
2023-01-02T23:13:56.904Z,98688.31
2023-01-02T23:17:01.631Z,98497.84
2023-01-02T23:19:47.470Z,98589.78
2023-01-02T23:22:32.860Z,98703.84
2023-01-02T23:25:18.558Z,98632.81
2023-01-02T23:28:04.149Z,98531.03
2023-01-02T23:30:49.491Z,98682.59
2023-01-02T23:33:34.973Z,98605.66
2023-01-02T23:36:20.165Z,98666.75
2023-01-02T23:39:07.762Z,98692.31
2023-01-02T23:41:54.526Z,98685.78
2023-01-02T23:44:41.043Z,98654.19
2023-01-02T23:47:27.733Z,98639.69
2023-01-02T23:50:13.233Z,98651.09
2023-01-02T23:52:58.754Z,98496.16
2023-01-02T23:55:44.388Z,98696.16
2023-01-02T23:58:29.944Z,98641.41
